sensor_id;sensor_type;location;lat;lon;timestamp;pressure;altitude;pressure_sealevel;temperature;humidity
29461;BME280;16428;47.836;35.106;2023-05-10T00:02:21;101920.06;;;9.74;90.57
29461;BME280;16428;47.836;35.106;2023-05-10T00:04:48;101924.00;;;9.70;90.54
29461;BME280;16428;47.836;35.106;2023-05-10T00:07:16;101926.56;;;9.72;91.59
29461;BME280;16428;47.836;35.106;2023-05-10T00:09:44;101924.28;;;9.67;91.22
29461;BME280;16428;47.836;35.106;2023-05-10T00:12:12;101914.25;;;9.69;91.55
29461;BME280;16428;47.836;35.106;2023-05-10T00:14:39;101910.44;;;9.72;91.90
29461;BME280;16428;47.836;35.106;2023-05-10T00:17:07;101910.59;;;9.70;91.39
29461;BME280;16428;47.836;35.106;2023-05-10T00:19:34;101910.72;;;9.78;91.10
29461;BME280;16428;47.836;35.106;2023-05-10T00:22:01;101907.63;;;9.73;91.39
29461;BME280;16428;47.836;35.106;2023-05-10T00:24:29;101903.38;;;9.71;92.86
29461;BME280;16428;47.836;35.106;2023-05-10T00:26:57;101908.88;;;9.79;92.51
29461;BME280;16428;47.836;35.106;2023-05-10T00:29:24;101913.41;;;9.78;92.64
29461;BME280;16428;47.836;35.106;2023-05-10T00:31:51;101913.97;;;9.92;90.58
29461;BME280;16428;47.836;35.106;2023-05-10T00:34:19;101910.16;;;9.84;90.49
29461;BME280;16428;47.836;35.106;2023-05-10T00:36:46;101914.81;;;9.82;92.58
29461;BME280;16428;47.836;35.106;2023-05-10T00:39:14;101919.78;;;9.77;92.53
29461;BME280;16428;47.836;35.106;2023-05-10T00:41:41;101916.09;;;9.78;92.38
29461;BME280;16428;47.836;35.106;2023-05-10T00:44:08;101913.81;;;9.83;89.34
29461;BME280;16428;47.836;35.106;2023-05-10T00:46:36;101905.63;;;9.85;89.29
29461;BME280;16428;47.836;35.106;2023-05-10T00:49:03;101913.66;;;9.95;88.83
29461;BME280;16428;47.836;35.106;2023-05-10T00:51:31;101916.66;;;9.92;87.40
29461;BME280;16428;47.836;35.106;2023-05-10T00:53:59;101909.28;;;9.94;87.52
29461;BME280;16428;47.836;35.106;2023-05-10T00:56:26;101902.66;;;9.98;86.95
29461;BME280;16428;47.836;35.106;2023-05-10T00:58:56;101905.59;;;9.95;84.89
29461;BME280;16428;47.836;35.106;2023-05-10T01:01:24;101896.72;;;9.84;86.30
29461;BME280;16428;47.836;35.106;2023-05-10T01:03:53;101904.47;;;9.97;85.66
29461;BME280;16428;47.836;35.106;2023-05-10T01:06:21;101905.03;;;10.01;85.32
29461;BME280;16428;47.836;35.106;2023-05-10T01:08:49;101902.25;;;9.93;84.85
29461;BME280;16428;47.836;35.106;2023-05-10T01:11:17;101897.56;;;9.95;85.12
29461;BME280;16428;47.836;35.106;2023-05-10T01:13:50;101899.25;;;9.96;84.67
29461;BME280;16428;47.836;35.106;2023-05-10T01:16:18;101895.16;;;10.01;84.04
29461;BME280;16428;47.836;35.106;2023-05-10T01:18:45;101893.75;;;9.78;85.81
29461;BME280;16428;47.836;35.106;2023-05-10T01:34:50;101881.63;;;9.64;87.13
29461;BME280;16428;47.836;35.106;2023-05-10T01:37:31;101887.84;;;9.65;87.12
29461;BME280;16428;47.836;35.106;2023-05-10T01:40:10;101878.41;;;9.70;86.45
29461;BME280;16428;47.836;35.106;2023-05-10T01:42:47;101872.47;;;9.67;86.72
29461;BME280;16428;47.836;35.106;2023-05-10T01:45:26;101880.53;;;9.57;88.12
29461;BME280;16428;47.836;35.106;2023-05-10T01:48:05;101880.50;;;9.67;86.97
29461;BME280;16428;47.836;35.106;2023-05-10T01:50:36;101879.25;;;9.61;87.53
29461;BME280;16428;47.836;35.106;2023-05-10T01:53:06;101875.03;;;9.59;87.76
29461;BME280;16428;47.836;35.106;2023-05-10T01:55:44;101885.06;;;9.47;89.72
29461;BME280;16428;47.836;35.106;2023-05-10T01:58:18;101879.69;;;9.37;91.57
29461;BME280;16428;47.836;35.106;2023-05-10T02:00:48;101873.03;;;9.51;90.67
29461;BME280;16428;47.836;35.106;2023-05-10T02:03:18;101874.31;;;9.28;92.83
29461;BME280;16428;47.836;35.106;2023-05-10T02:05:49;101874.88;;;9.22;95.33
29461;BME280;16428;47.836;35.106;2023-05-10T02:08:18;101882.19;;;9.20;96.40
29461;BME280;16428;47.836;35.106;2023-05-10T02:10:47;101883.34;;;9.27;94.03
29461;BME280;16428;47.836;35.106;2023-05-10T02:13:17;101879.22;;;9.03;97.34
29461;BME280;16428;47.836;35.106;2023-05-10T02:15:48;101887.56;;;9.10;96.29
29461;BME280;16428;47.836;35.106;2023-05-10T02:18:16;101880.91;;;9.04;98.28
29461;BME280;16428;47.836;35.106;2023-05-10T02:20:46;101886.41;;;9.03;97.50
29461;BME280;16428;47.836;35.106;2023-05-10T02:23:16;101879.94;;;9.05;97.98
29461;BME280;16428;47.836;35.106;2023-05-10T02:25:45;101874.44;;;9.07;98.75
29461;BME280;16428;47.836;35.106;2023-05-10T02:28:14;101879.66;;;9.08;99.91
29461;BME280;16428;47.836;35.106;2023-05-10T02:30:42;101876.13;;;9.17;99.21
29461;BME280;16428;47.836;35.106;2023-05-10T02:33:11;101869.78;;;9.09;99.89
29461;BME280;16428;47.836;35.106;2023-05-10T02:35:39;101879.66;;;9.18;99.23
29461;BME280;16428;47.836;35.106;2023-05-10T02:38:07;101879.81;;;9.26;98.79
29461;BME280;16428;47.836;35.106;2023-05-10T02:40:36;101876.28;;;9.16;99.84
29461;BME280;16428;47.836;35.106;2023-05-10T02:43:05;101883.63;;;9.14;100.00
29461;BME280;16428;47.836;35.106;2023-05-10T02:45:35;101872.19;;;9.22;100.00
29461;BME280;16428;47.836;35.106;2023-05-10T02:48:06;101868.97;;;9.28;100.00
29461;BME280;16428;47.836;35.106;2023-05-10T02:50:35;101873.91;;;9.42;99.60
29461;BME280;16428;47.836;35.106;2023-05-10T02:53:10;101878.53;;;9.49;98.57
29461;BME280;16428;47.836;35.106;2023-05-10T02:55:40;101879.69;;;9.47;99.50
29461;BME280;16428;47.836;35.106;2023-05-10T02:58:09;101883.75;;;9.51;99.79
29461;BME280;16428;47.836;35.106;2023-05-10T03:00:37;101882.63;;;9.53;100.00
29461;BME280;16428;47.836;35.106;2023-05-10T03:03:04;101881.25;;;9.59;98.43
29461;BME280;16428;47.836;35.106;2023-05-10T03:05:32;101883.34;;;9.65;97.74
29461;BME280;16428;47.836;35.106;2023-05-10T03:08:00;101881.94;;;9.71;97.59
29461;BME280;16428;47.836;35.106;2023-05-10T03:10:32;101882.06;;;9.69;97.50
29461;BME280;16428;47.836;35.106;2023-05-10T03:13:16;101885.19;;;9.74;97.62
29461;BME280;16428;47.836;35.106;2023-05-10T03:15:55;101890.66;;;9.92;97.59
29461;BME280;16428;47.836;35.106;2023-05-10T03:19:01;101878.47;;;9.98;96.25
29461;BME280;16428;47.836;35.106;2023-05-10T03:21:28;101890.34;;;10.05;95.73
29461;BME280;16428;47.836;35.106;2023-05-10T03:24:05;101885.84;;;10.05;95.08
29461;BME280;16428;47.836;35.106;2023-05-10T03:26:34;101886.22;;;10.10;93.89
29461;BME280;16428;47.836;35.106;2023-05-10T03:29:04;101893.44;;;10.19;93.82
29461;BME280;16428;47.836;35.106;2023-05-10T03:31:32;101884.94;;;10.14;93.16
29461;BME280;16428;47.836;35.106;2023-05-10T03:34:00;101885.22;;;10.11;94.04
29461;BME280;16428;47.836;35.106;2023-05-10T03:36:28;101889.31;;;10.15;93.10
29461;BME280;16428;47.836;35.106;2023-05-10T03:38:55;101889.47;;;10.23;93.27
29461;BME280;16428;47.836;35.106;2023-05-10T03:41:23;101894.31;;;10.20;93.44
29461;BME280;16428;47.836;35.106;2023-05-10T03:43:52;101895.63;;;10.43;91.02
29461;BME280;16428;47.836;35.106;2023-05-10T03:46:19;101892.84;;;10.35;91.34
29461;BME280;16428;47.836;35.106;2023-05-10T03:48:46;101893.06;;;10.51;90.34
29461;BME280;16428;47.836;35.106;2023-05-10T03:51:14;101908.91;;;10.45;89.93
29461;BME280;16428;47.836;35.106;2023-05-10T03:53:41;101896.97;;;10.57;89.87
29461;BME280;16428;47.836;35.106;2023-05-10T03:56:09;101896.63;;;10.70;88.95
29461;BME280;16428;47.836;35.106;2023-05-10T03:58:36;101891.94;;;10.72;88.07
29461;BME280;16428;47.836;35.106;2023-05-10T04:01:03;101892.94;;;10.71;87.02
29461;BME280;16428;47.836;35.106;2023-05-10T04:03:32;101890.59;;;10.85;86.64
29461;BME280;16428;47.836;35.106;2023-05-10T04:06:00;101896.88;;;10.76;86.24
29461;BME280;16428;47.836;35.106;2023-05-10T04:08:28;101897.38;;;10.89;85.41
29461;BME280;16428;47.836;35.106;2023-05-10T04:11:10;101889.75;;;10.85;85.52
29461;BME280;16428;47.836;35.106;2023-05-10T04:13:38;101893.47;;;10.84;85.64
29461;BME280;16428;47.836;35.106;2023-05-10T04:16:06;101891.72;;;10.92;86.07
29461;BME280;16428;47.836;35.106;2023-05-10T04:18:33;101899.34;;;10.97;86.23
29461;BME280;16428;47.836;35.106;2023-05-10T04:21:00;101902.41;;;11.02;87.00
29461;BME280;16428;47.836;35.106;2023-05-10T04:23:28;101896.16;;;11.02;86.92
29461;BME280;16428;47.836;35.106;2023-05-10T04:26:00;101899.81;;;11.10;85.34
29461;BME280;16428;47.836;35.106;2023-05-10T04:28:28;101897.50;;;11.15;86.08
29461;BME280;16428;47.836;35.106;2023-05-10T04:31:03;101896.81;;;11.13;86.61
29461;BME280;16428;47.836;35.106;2023-05-10T04:33:32;101898.88;;;11.19;85.55
29461;BME280;16428;47.836;35.106;2023-05-10T04:36:00;101899.81;;;11.10;86.54
29461;BME280;16428;47.836;35.106;2023-05-10T04:38:28;101896.59;;;11.24;86.03
29461;BME280;16428;47.836;35.106;2023-05-10T04:41:09;101893.69;;;11.36;85.34
29461;BME280;16428;47.836;35.106;2023-05-10T04:43:37;101892.06;;;11.43;84.05
29461;BME280;16428;47.836;35.106;2023-05-10T04:46:05;101898.16;;;11.45;84.43
29461;BME280;16428;47.836;35.106;2023-05-10T04:48:34;101883.31;;;11.58;80.53
29461;BME280;16428;47.836;35.106;2023-05-10T04:51:03;101892.75;;;11.80;77.27
29461;BME280;16428;47.836;35.106;2023-05-10T04:53:31;101893.84;;;11.87;73.55
29461;BME280;16428;47.836;35.106;2023-05-10T04:55:59;101892.38;;;11.75;69.06
29461;BME280;16428;47.836;35.106;2023-05-10T04:58:26;101900.84;;;11.80;68.49
29461;BME280;16428;47.836;35.106;2023-05-10T05:00:53;101893.97;;;11.68;67.10
29461;BME280;16428;47.836;35.106;2023-05-10T05:03:21;101897.66;;;11.67;63.92
29461;BME280;16428;47.836;35.106;2023-05-10T05:05:49;101892.44;;;11.83;64.25
29461;BME280;16428;47.836;35.106;2023-05-10T05:08:17;101895.84;;;11.85;63.52
29461;BME280;16428;47.836;35.106;2023-05-10T05:10:44;101899.66;;;12.01;63.46
29461;BME280;16428;47.836;35.106;2023-05-10T05:13:12;101888.19;;;11.98;62.70
29461;BME280;16428;47.836;35.106;2023-05-10T05:15:39;101893.72;;;12.23;63.60
29461;BME280;16428;47.836;35.106;2023-05-10T05:18:07;101886.25;;;12.35;62.36
29461;BME280;16428;47.836;35.106;2023-05-10T05:20:35;101891.50;;;12.44;61.27
29461;BME280;16428;47.836;35.106;2023-05-10T05:23:02;101892.50;;;12.43;61.80
29461;BME280;16428;47.836;35.106;2023-05-10T05:25:30;101889.50;;;12.54;62.11
29461;BME280;16428;47.836;35.106;2023-05-10T05:27:57;101887.50;;;12.56;62.35
29461;BME280;16428;47.836;35.106;2023-05-10T05:30:25;101887.16;;;12.51;62.41
29461;BME280;16428;47.836;35.106;2023-05-10T05:32:52;101895.59;;;12.56;61.65
29461;BME280;16428;47.836;35.106;2023-05-10T05:35:20;101893.56;;;12.50;60.52
29461;BME280;16428;47.836;35.106;2023-05-10T05:37:47;101884.72;;;12.66;59.79
29461;BME280;16428;47.836;35.106;2023-05-10T05:40:15;101889.28;;;12.74;56.62
29461;BME280;16428;47.836;35.106;2023-05-10T05:42:43;101880.66;;;12.70;54.05
29461;BME280;16428;47.836;35.106;2023-05-10T05:45:10;101887.56;;;12.64;54.71
29461;BME280;16428;47.836;35.106;2023-05-10T05:47:40;101888.41;;;12.65;56.03
29461;BME280;16428;47.836;35.106;2023-05-10T05:50:08;101887.28;;;12.42;56.13
29461;BME280;16428;47.836;35.106;2023-05-10T05:52:36;101883.47;;;12.52;57.13
29461;BME280;16428;47.836;35.106;2023-05-10T05:55:04;101887.09;;;12.77;56.07
29461;BME280;16428;47.836;35.106;2023-05-10T05:57:31;101889.03;;;13.01;56.67
29461;BME280;16428;47.836;35.106;2023-05-10T05:59:59;101883.50;;;13.11;55.77
29461;BME280;16428;47.836;35.106;2023-05-10T06:02:26;101886.97;;;13.53;55.16
29461;BME280;16428;47.836;35.106;2023-05-10T06:04:54;101885.47;;;13.59;53.12
29461;BME280;16428;47.836;35.106;2023-05-10T06:07:21;101878.34;;;13.66;54.03
29461;BME280;16428;47.836;35.106;2023-05-10T06:09:49;101868.59;;;13.73;53.46
29461;BME280;16428;47.836;35.106;2023-05-10T06:12:16;101872.59;;;13.45;53.75
29461;BME280;16428;47.836;35.106;2023-05-10T06:14:44;101880.88;;;13.84;51.96
29461;BME280;16428;47.836;35.106;2023-05-10T06:17:11;101877.00;;;13.86;52.36
29461;BME280;16428;47.836;35.106;2023-05-10T06:19:38;101871.59;;;13.62;51.21
29461;BME280;16428;47.836;35.106;2023-05-10T06:22:06;101873.28;;;13.79;51.81
29461;BME280;16428;47.836;35.106;2023-05-10T06:24:33;101871.59;;;13.94;52.49
29461;BME280;16428;47.836;35.106;2023-05-10T06:27:01;101884.78;;;13.89;51.28
29461;BME280;16428;47.836;35.106;2023-05-10T06:29:29;101889.16;;;13.98;49.50
29461;BME280;16428;47.836;35.106;2023-05-10T06:31:57;101877.69;;;13.64;52.15
29461;BME280;16428;47.836;35.106;2023-05-10T06:34:24;101883.41;;;13.36;51.39
29461;BME280;16428;47.836;35.106;2023-05-10T06:36:52;101876.00;;;13.55;52.35
29461;BME280;16428;47.836;35.106;2023-05-10T06:39:19;101876.16;;;13.45;52.03
29461;BME280;16428;47.836;35.106;2023-05-10T06:41:47;101867.56;;;13.42;51.59
29461;BME280;16428;47.836;35.106;2023-05-10T06:44:14;101874.81;;;13.57;51.88
29461;BME280;16428;47.836;35.106;2023-05-10T06:46:42;101870.75;;;13.61;51.59
29461;BME280;16428;47.836;35.106;2023-05-10T06:49:10;101870.59;;;13.63;51.64
29461;BME280;16428;47.836;35.106;2023-05-10T06:51:37;101876.16;;;13.29;50.12
29461;BME280;16428;47.836;35.106;2023-05-10T06:54:04;101872.97;;;13.42;51.12
29461;BME280;16428;47.836;35.106;2023-05-10T06:56:32;101877.53;;;13.57;51.07
29461;BME280;16428;47.836;35.106;2023-05-10T06:58:59;101885.63;;;13.41;51.26
29461;BME280;16428;47.836;35.106;2023-05-10T07:01:27;101872.28;;;13.64;50.64
29461;BME280;16428;47.836;35.106;2023-05-10T07:03:54;101877.00;;;13.62;50.48
29461;BME280;16428;47.836;35.106;2023-05-10T07:06:22;101874.31;;;13.54;50.71
29461;BME280;16428;47.836;35.106;2023-05-10T07:09:00;101880.69;;;13.45;50.49
29461;BME280;16428;47.836;35.106;2023-05-10T07:11:27;101874.81;;;13.57;51.78
29461;BME280;16428;47.836;35.106;2023-05-10T07:13:56;101879.38;;;13.57;52.32
29461;BME280;16428;47.836;35.106;2023-05-10T07:16:24;101876.53;;;13.75;51.37
29461;BME280;16428;47.836;35.106;2023-05-10T07:18:52;101871.56;;;14.11;51.18
29461;BME280;16428;47.836;35.106;2023-05-10T07:21:20;101876.59;;;14.30;49.48
29461;BME280;16428;47.836;35.106;2023-05-10T07:23:51;101879.16;;;14.07;48.95
29461;BME280;16428;47.836;35.106;2023-05-10T07:26:18;101878.34;;;13.98;50.67
29461;BME280;16428;47.836;35.106;2023-05-10T07:28:46;101871.91;;;13.91;51.33
29461;BME280;16428;47.836;35.106;2023-05-10T07:31:14;101878.50;;;13.97;50.82
29461;BME280;16428;47.836;35.106;2023-05-10T07:33:41;101867.03;;;13.79;51.55
29461;BME280;16428;47.836;35.106;2023-05-10T07:36:08;101865.88;;;13.89;51.21
29461;BME280;16428;47.836;35.106;2023-05-10T07:38:36;101869.56;;;13.96;50.13
29461;BME280;16428;47.836;35.106;2023-05-10T07:41:06;101862.59;;;14.10;50.57
29461;BME280;16428;47.836;35.106;2023-05-10T07:43:34;101860.75;;;14.11;53.91
29461;BME280;16428;47.836;35.106;2023-05-10T07:46:02;101872.91;;;14.15;54.74
29461;BME280;16428;47.836;35.106;2023-05-10T07:48:30;101859.06;;;14.09;54.71
29461;BME280;16428;47.836;35.106;2023-05-10T07:50:58;101862.78;;;14.17;56.71
29461;BME280;16428;47.836;35.106;2023-05-10T07:53:26;101868.34;;;14.15;55.67
29461;BME280;16428;47.836;35.106;2023-05-10T07:55:57;101873.28;;;13.95;53.00
29461;BME280;16428;47.836;35.106;2023-05-10T07:58:25;101871.91;;;14.07;53.17
29461;BME280;16428;47.836;35.106;2023-05-10T08:00:52;101873.88;;;14.30;52.63
29461;BME280;16428;47.836;35.106;2023-05-10T08:03:20;101866.97;;;14.27;52.66
29461;BME280;16428;47.836;35.106;2023-05-10T08:05:48;101866.44;;;14.40;54.33
29461;BME280;16428;47.836;35.106;2023-05-10T08:08:15;101869.06;;;14.01;60.69
29461;BME280;16428;47.836;35.106;2023-05-10T08:10:43;101864.16;;;13.96;57.44
29461;BME280;16428;47.836;35.106;2023-05-10T08:13:10;101863.31;;;13.96;56.98
29461;BME280;16428;47.836;35.106;2023-05-10T08:15:38;101865.53;;;13.84;55.40
29461;BME280;16428;47.836;35.106;2023-05-10T08:18:05;101863.84;;;13.83;56.61
29461;BME280;16428;47.836;35.106;2023-05-10T08:20:33;101862.50;;;13.63;59.63
29461;BME280;16428;47.836;35.106;2023-05-10T08:23:01;101878.88;;;13.53;59.79
29461;BME280;16428;47.836;35.106;2023-05-10T08:25:28;101881.06;;;13.42;62.71
29461;BME280;16428;47.836;35.106;2023-05-10T08:27:56;101892.47;;;13.19;65.73
29461;BME280;16428;47.836;35.106;2023-05-10T08:30:23;101883.78;;;12.99;70.07
29461;BME280;16428;47.836;35.106;2023-05-10T08:32:51;101880.97;;;13.09;71.24
29461;BME280;16428;47.836;35.106;2023-05-10T08:35:18;101876.16;;;12.87;73.67
29461;BME280;16428;47.836;35.106;2023-05-10T08:37:46;101877.97;;;13.20;70.06
29461;BME280;16428;47.836;35.106;2023-05-10T08:40:14;101870.25;;;13.33;69.55
29461;BME280;16428;47.836;35.106;2023-05-10T08:42:50;101870.41;;;13.48;67.41
29461;BME280;16428;47.836;35.106;2023-05-10T08:45:19;101870.28;;;13.58;65.98
29461;BME280;16428;47.836;35.106;2023-05-10T08:47:47;101857.25;;;14.02;63.29
29461;BME280;16428;47.836;35.106;2023-05-10T08:50:17;101859.28;;;14.55;61.90
29461;BME280;16428;47.836;35.106;2023-05-10T08:52:48;101859.56;;;14.68;60.29
29461;BME280;16428;47.836;35.106;2023-05-10T08:55:18;101852.72;;;14.89;58.99
29461;BME280;16428;47.836;35.106;2023-05-10T08:57:46;101858.31;;;14.87;55.63
29461;BME280;16428;47.836;35.106;2023-05-10T09:00:14;101860.13;;;14.95;53.33
29461;BME280;16428;47.836;35.106;2023-05-10T09:02:42;101852.19;;;14.93;56.04
29461;BME280;16428;47.836;35.106;2023-05-10T09:05:12;101854.88;;;15.70;52.10
29461;BME280;16428;47.836;35.106;2023-05-10T09:07:40;101850.44;;;16.06;51.87
29461;BME280;16428;47.836;35.106;2023-05-10T09:10:08;101850.47;;;16.36;51.97
29461;BME280;16428;47.836;35.106;2023-05-10T09:12:36;101843.34;;;16.35;47.26
29461;BME280;16428;47.836;35.106;2023-05-10T09:15:05;101841.69;;;16.19;45.17
29461;BME280;16428;47.836;35.106;2023-05-10T09:17:34;101841.28;;;16.07;46.83
29461;BME280;16428;47.836;35.106;2023-05-10T09:20:03;101846.75;;;15.70;47.08
29461;BME280;16428;47.836;35.106;2023-05-10T09:22:34;101855.69;;;15.56;47.39
29461;BME280;16428;47.836;35.106;2023-05-10T09:25:09;101857.16;;;15.35;49.25
29461;BME280;16428;47.836;35.106;2023-05-10T09:27:39;101859.22;;;15.02;51.67
29461;BME280;16428;47.836;35.106;2023-05-10T09:30:08;101854.06;;;14.93;53.47
29461;BME280;16428;47.836;35.106;2023-05-10T09:32:41;101848.81;;;14.60;58.62
29461;BME280;16428;47.836;35.106;2023-05-10T09:37:41;101848.88;;;14.28;61.26
29461;BME280;16428;47.836;35.106;2023-05-10T09:40:13;101848.50;;;14.39;57.07
29461;BME280;16428;47.836;35.106;2023-05-10T09:42:43;101845.81;;;14.47;57.01
29461;BME280;16428;47.836;35.106;2023-05-10T09:45:17;101841.41;;;14.38;60.20
29461;BME280;16428;47.836;35.106;2023-05-10T09:47:45;101844.34;;;14.67;55.92
29461;BME280;16428;47.836;35.106;2023-05-10T09:50:13;101843.59;;;14.90;51.33
29461;BME280;16428;47.836;35.106;2023-05-10T09:52:53;101841.25;;;15.32;56.01
29461;BME280;16428;47.836;35.106;2023-05-10T09:55:22;101841.47;;;15.91;49.61
29461;BME280;16428;47.836;35.106;2023-05-10T09:57:59;101833.56;;;16.63;48.73
29461;BME280;16428;47.836;35.106;2023-05-10T10:00:28;101828.75;;;16.80;46.50
29461;BME280;16428;47.836;35.106;2023-05-10T10:02:57;101814.72;;;16.76;46.62
29461;BME280;16428;47.836;35.106;2023-05-10T10:05:29;101824.19;;;17.44;44.11
29461;BME280;16428;47.836;35.106;2023-05-10T10:07:57;101814.13;;;17.38;44.02
29461;BME280;16428;47.836;35.106;2023-05-10T10:10:26;101821.06;;;17.41;45.03
29461;BME280;16428;47.836;35.106;2023-05-10T10:12:54;101814.34;;;16.79;41.75
29461;BME280;16428;47.836;35.106;2023-05-10T10:15:23;101811.66;;;17.01;43.70
29461;BME280;16428;47.836;35.106;2023-05-10T10:17:52;101806.31;;;17.07;44.69
29461;BME280;16428;47.836;35.106;2023-05-10T10:20:21;101814.13;;;16.96;44.37
29461;BME280;16428;47.836;35.106;2023-05-10T10:22:49;101813.41;;;16.72;44.10
29461;BME280;16428;47.836;35.106;2023-05-10T10:25:19;101819.88;;;16.57;45.16
29461;BME280;16428;47.836;35.106;2023-05-10T10:35:46;101823.63;;;16.11;45.59
29461;BME280;16428;47.836;35.106;2023-05-10T10:38:14;101812.63;;;16.13;46.18
29461;BME280;16428;47.836;35.106;2023-05-10T10:40:41;101812.59;;;16.42;45.38
29461;BME280;16428;47.836;35.106;2023-05-10T10:43:28;101811.94;;;16.26;44.56
29461;BME280;16428;47.836;35.106;2023-05-10T10:46:14;101812.41;;;16.29;45.35
29461;BME280;16428;47.836;35.106;2023-05-10T10:48:50;101806.22;;;16.50;44.61
29461;BME280;16428;47.836;35.106;2023-05-10T10:51:38;101803.41;;;16.73;44.90
29461;BME280;16428;47.836;35.106;2023-05-10T10:54:11;101800.31;;;16.76;44.69
29461;BME280;16428;47.836;35.106;2023-05-10T10:56:38;101806.09;;;16.87;42.89
29461;BME280;16428;47.836;35.106;2023-05-10T10:59:07;101805.47;;;17.07;42.34
29461;BME280;16428;47.836;35.106;2023-05-10T11:01:35;101807.84;;;17.16;40.54
29461;BME280;16428;47.836;35.106;2023-05-10T11:06:35;101807.72;;;17.25;42.10
29461;BME280;16428;47.836;35.106;2023-05-10T11:09:11;101805.38;;;17.43;41.12
29461;BME280;16428;47.836;35.106;2023-05-10T11:11:52;101804.09;;;17.88;39.83
29461;BME280;16428;47.836;35.106;2023-05-10T11:14:22;101801.22;;;17.96;40.08
29461;BME280;16428;47.836;35.106;2023-05-10T11:16:50;101798.44;;;17.83;40.08
29461;BME280;16428;47.836;35.106;2023-05-10T11:19:18;101788.66;;;17.95;39.10
29461;BME280;16428;47.836;35.106;2023-05-10T11:22:12;101796.00;;;18.36;38.42
29461;BME280;16428;47.836;35.106;2023-05-10T11:24:56;101785.00;;;18.09;38.80
29461;BME280;16428;47.836;35.106;2023-05-10T11:27:23;101789.81;;;18.55;36.39
29461;BME280;16428;47.836;35.106;2023-05-10T11:29:51;101784.00;;;18.17;37.77
29461;BME280;16428;47.836;35.106;2023-05-10T11:32:19;101782.44;;;18.49;37.56
29461;BME280;16428;47.836;35.106;2023-05-10T11:34:47;101786.00;;;19.10;37.24
29461;BME280;16428;47.836;35.106;2023-05-10T11:37:18;101791.31;;;19.38;36.42
29461;BME280;16428;47.836;35.106;2023-05-10T11:39:46;101791.50;;;19.43;35.72
29461;BME280;16428;47.836;35.106;2023-05-10T11:42:14;101796.28;;;19.02;37.17
29461;BME280;16428;47.836;35.106;2023-05-10T11:44:45;101784.78;;;19.06;35.82
29461;BME280;16428;47.836;35.106;2023-05-10T11:47:12;101785.31;;;18.75;36.71
29461;BME280;16428;47.836;35.106;2023-05-10T11:49:43;101782.13;;;18.17;37.25
29461;BME280;16428;47.836;35.106;2023-05-10T11:52:11;101787.00;;;17.94;38.70
29461;BME280;16428;47.836;35.106;2023-05-10T11:54:52;101780.41;;;18.10;38.95
29461;BME280;16428;47.836;35.106;2023-05-10T11:57:25;101788.44;;;18.24;39.19
29461;BME280;16428;47.836;35.106;2023-05-10T11:59:53;101793.00;;;18.17;39.68
29461;BME280;16428;47.836;35.106;2023-05-10T12:02:22;101792.63;;;18.34;38.09
29461;BME280;16428;47.836;35.106;2023-05-10T12:04:50;101792.78;;;18.19;38.68
29461;BME280;16428;47.836;35.106;2023-05-10T12:07:18;101796.06;;;18.49;37.50
29461;BME280;16428;47.836;35.106;2023-05-10T12:10:11;101795.00;;;18.97;38.11
29461;BME280;16428;47.836;35.106;2023-05-10T12:12:47;101794.69;;;19.53;37.08
29461;BME280;16428;47.836;35.106;2023-05-10T12:15:24;101790.91;;;19.67;36.50
29461;BME280;16428;47.836;35.106;2023-05-10T12:17:51;101800.53;;;19.77;34.01
29461;BME280;16428;47.836;35.106;2023-05-10T12:20:27;101813.53;;;19.75;36.56
29461;BME280;16428;47.836;35.106;2023-05-10T12:22:56;101813.53;;;19.48;38.40
29461;BME280;16428;47.836;35.106;2023-05-10T12:25:30;101809.66;;;18.90;40.29
29461;BME280;16428;47.836;35.106;2023-05-10T12:28:00;101818.47;;;18.10;43.02
29461;BME280;16428;47.836;35.106;2023-05-10T12:30:32;101807.91;;;17.93;43.86
29461;BME280;16428;47.836;35.106;2023-05-10T12:33:08;101805.72;;;17.33;45.34
29461;BME280;16428;47.836;35.106;2023-05-10T12:35:45;101805.09;;;17.10;44.85
29461;BME280;16428;47.836;35.106;2023-05-10T12:38:36;101809.41;;;17.04;44.84
29461;BME280;16428;47.836;35.106;2023-05-10T12:41:07;101809.50;;;16.60;44.22
29461;BME280;16428;47.836;35.106;2023-05-10T12:43:36;101805.41;;;16.64;43.90
29461;BME280;16428;47.836;35.106;2023-05-10T12:46:17;101812.25;;;16.16;46.65
29461;BME280;16428;47.836;35.106;2023-05-10T12:48:45;101815.13;;;16.14;46.14
29461;BME280;16428;47.836;35.106;2023-05-10T12:51:14;101810.25;;;16.25;45.96
29461;BME280;16428;47.836;35.106;2023-05-10T12:53:44;101819.25;;;16.10;47.67
29461;BME280;16428;47.836;35.106;2023-05-10T12:56:15;101812.50;;;16.21;47.25
29461;BME280;16428;47.836;35.106;2023-05-10T12:58:42;101805.09;;;16.74;45.73
29461;BME280;16428;47.836;35.106;2023-05-10T13:01:15;101805.56;;;16.77;45.82
29461;BME280;16428;47.836;35.106;2023-05-10T13:03:42;101802.28;;;16.67;46.52
29461;BME280;16428;47.836;35.106;2023-05-10T13:06:10;101788.84;;;16.95;44.96
29461;BME280;16428;47.836;35.106;2023-05-10T13:08:38;101798.97;;;16.86;44.28
29461;BME280;16428;47.836;35.106;2023-05-10T13:11:05;101800.28;;;16.91;43.47
29461;BME280;16428;47.836;35.106;2023-05-10T13:13:33;101788.34;;;16.70;43.43
29461;BME280;16428;47.836;35.106;2023-05-10T13:16:00;101795.59;;;16.84;44.14
29461;BME280;16428;47.836;35.106;2023-05-10T13:18:28;101789.13;;;16.85;42.01
29461;BME280;16428;47.836;35.106;2023-05-10T13:20:55;101791.59;;;16.80;42.92
29461;BME280;16428;47.836;35.106;2023-05-10T13:23:23;101791.16;;;16.62;41.29